sensor_id;sensor_type;location;lat;lon;timestamp;P1;durP1;ratioP1;P2;durP2;ratioP2
36423;SDS011;22458;45.328;9.514;2022-09-03T00:01:06;10.63;;;9.52;;
36423;SDS011;22458;45.328;9.514;2022-09-03T00:03:42;10.80;;;9.70;;
36423;SDS011;22458;45.328;9.514;2022-09-03T00:06:17;10.30;;;9.30;;
36423;SDS011;22458;45.328;9.514;2022-09-03T00:11:32;9.90;;;9.00;;
36423;SDS011;22458;45.328;9.514;2022-09-03T00:14:19;9.93;;;8.93;;
36423;SDS011;22458;45.328;9.514;2022-09-03T00:16:53;9.45;;;8.45;;
36423;SDS011;22458;45.328;9.514;2022-09-03T00:19:24;10.75;;;9.27;;
36423;SDS011;22458;45.328;9.514;2022-09-03T00:21:56;12.75;;;9.60;;
36423;SDS011;22458;45.328;9.514;2022-09-03T00:24:30;11.20;;;9.68;;
36423;SDS011;22458;45.328;9.514;2022-09-03T00:27:00;9.55;;;8.65;;
36423;SDS011;22458;45.328;9.514;2022-09-03T00:32:10;9.27;;;8.38;;
36423;SDS011;22458;45.328;9.514;2022-09-03T00:34:44;10.73;;;7.50;;
36423;SDS011;22458;45.328;9.514;2022-09-03T00:37:21;9.38;;;7.80;;
36423;SDS011;22458;45.328;9.514;2022-09-03T00:39:46;8.80;;;7.90;;
36423;SDS011;22458;45.328;9.514;2022-09-03T00:59:15;9.18;;;6.82;;
36423;SDS011;22458;45.328;9.514;2022-09-03T01:02:06;9.00;;;7.25;;
36423;SDS011;22458;45.328;9.514;2022-09-03T01:07:21;8.57;;;7.05;;
36423;SDS011;22458;45.328;9.514;2022-09-03T01:10:07;8.07;;;6.75;;
36423;SDS011;22458;45.328;9.514;2022-09-03T01:15:44;7.15;;;6.40;;
36423;SDS011;22458;45.328;9.514;2022-09-03T01:21:26;7.60;;;6.03;;
36423;SDS011;22458;45.328;9.514;2022-09-03T01:29:23;8.07;;;6.53;;
36423;SDS011;22458;45.328;9.514;2022-09-03T01:43:37;7.60;;;6.78;;
36423;SDS011;22458;45.328;9.514;2022-09-03T01:46:22;11.95;;;6.43;;
36423;SDS011;22458;45.328;9.514;2022-09-03T01:49:59;6.40;;;5.80;;
36423;SDS011;22458;45.328;9.514;2022-09-03T01:52:20;7.25;;;6.55;;
36423;SDS011;22458;45.328;9.514;2022-09-03T01:57:38;7.90;;;6.47;;
36423;SDS011;22458;45.328;9.514;2022-09-03T02:00:15;6.22;;;5.70;;
36423;SDS011;22458;45.328;9.514;2022-09-03T02:02:45;7.70;;;6.40;;
36423;SDS011;22458;45.328;9.514;2022-09-03T02:05:17;7.15;;;6.50;;
36423;SDS011;22458;45.328;9.514;2022-09-03T02:07:53;7.18;;;6.30;;
36423;SDS011;22458;45.328;9.514;2022-09-03T02:15:39;6.07;;;5.47;;
36423;SDS011;22458;45.328;9.514;2022-09-03T02:18:17;6.07;;;5.38;;
36423;SDS011;22458;45.328;9.514;2022-09-03T02:20:49;6.18;;;5.57;;
36423;SDS011;22458;45.328;9.514;2022-09-03T02:23:17;6.93;;;5.43;;
36423;SDS011;22458;45.328;9.514;2022-09-03T02:25:44;6.13;;;5.53;;
36423;SDS011;22458;45.328;9.514;2022-09-03T02:28:15;5.55;;;4.85;;
36423;SDS011;22458;45.328;9.514;2022-09-03T02:30:41;7.45;;;5.97;;
36423;SDS011;22458;45.328;9.514;2022-09-03T02:33:07;6.35;;;5.60;;
36423;SDS011;22458;45.328;9.514;2022-09-03T02:35:33;6.47;;;5.43;;
36423;SDS011;22458;45.328;9.514;2022-09-03T02:38:16;6.65;;;5.70;;
36423;SDS011;22458;45.328;9.514;2022-09-03T02:40:44;5.63;;;5.10;;
36423;SDS011;22458;45.328;9.514;2022-09-03T02:43:12;5.10;;;4.65;;
36423;SDS011;22458;45.328;9.514;2022-09-03T02:45:45;6.25;;;4.82;;
36423;SDS011;22458;45.328;9.514;2022-09-03T02:48:12;5.28;;;4.78;;
36423;SDS011;22458;45.328;9.514;2022-09-03T02:50:42;5.80;;;5.20;;
36423;SDS011;22458;45.328;9.514;2022-09-03T02:53:08;5.95;;;5.45;;
36423;SDS011;22458;45.328;9.514;2022-09-03T02:55:34;7.40;;;5.93;;
36423;SDS011;22458;45.328;9.514;2022-09-03T02:58:00;5.93;;;5.43;;
36423;SDS011;22458;45.328;9.514;2022-09-03T03:00:26;6.57;;;5.20;;
36423;SDS011;22458;45.328;9.514;2022-09-03T03:02:54;5.75;;;5.15;;
36423;SDS011;22458;45.328;9.514;2022-09-03T03:05:22;6.00;;;5.40;;
36423;SDS011;22458;45.328;9.514;2022-09-03T03:07:52;5.55;;;5.05;;
36423;SDS011;22458;45.328;9.514;2022-09-03T03:10:18;6.45;;;5.40;;
36423;SDS011;22458;45.328;9.514;2022-09-03T03:12:44;6.72;;;5.57;;
36423;SDS011;22458;45.328;9.514;2022-09-03T03:15:09;6.88;;;5.18;;
36423;SDS011;22458;45.328;9.514;2022-09-03T03:17:35;6.22;;;5.63;;
36423;SDS011;22458;45.328;9.514;2022-09-03T03:20:01;6.32;;;5.13;;
36423;SDS011;22458;45.328;9.514;2022-09-03T03:22:27;6.05;;;5.50;;
36423;SDS011;22458;45.328;9.514;2022-09-03T03:24:52;8.48;;;5.15;;
36423;SDS011;22458;45.328;9.514;2022-09-03T03:27:19;9.02;;;5.70;;
36423;SDS011;22458;45.328;9.514;2022-09-03T03:29:45;6.07;;;5.45;;
36423;SDS011;22458;45.328;9.514;2022-09-03T03:32:10;6.03;;;5.43;;
36423;SDS011;22458;45.328;9.514;2022-09-03T03:34:36;6.78;;;5.90;;
36423;SDS011;22458;45.328;9.514;2022-09-03T03:37:03;6.50;;;5.65;;
36423;SDS011;22458;45.328;9.514;2022-09-03T03:39:29;7.32;;;6.63;;
36423;SDS011;22458;45.328;9.514;2022-09-03T03:41:55;6.28;;;5.60;;
36423;SDS011;22458;45.328;9.514;2022-09-03T03:44:21;6.55;;;5.95;;
36423;SDS011;22458;45.328;9.514;2022-09-03T03:46:47;6.82;;;5.55;;
36423;SDS011;22458;45.328;9.514;2022-09-03T03:49:12;6.60;;;6.00;;
36423;SDS011;22458;45.328;9.514;2022-09-03T03:51:38;9.07;;;5.85;;
36423;SDS011;22458;45.328;9.514;2022-09-03T03:54:05;6.28;;;5.72;;
36423;SDS011;22458;45.328;9.514;2022-09-03T03:56:30;7.75;;;5.82;;
36423;SDS011;22458;45.328;9.514;2022-09-03T03:58:57;5.93;;;5.38;;
36423;SDS011;22458;45.328;9.514;2022-09-03T04:01:24;6.28;;;5.68;;
36423;SDS011;22458;45.328;9.514;2022-09-03T04:03:53;6.95;;;5.63;;
36423;SDS011;22458;45.328;9.514;2022-09-03T04:06:20;9.63;;;6.78;;
36423;SDS011;22458;45.328;9.514;2022-09-03T04:08:46;6.43;;;5.82;;
36423;SDS011;22458;45.328;9.514;2022-09-03T04:11:14;6.55;;;5.95;;
36423;SDS011;22458;45.328;9.514;2022-09-03T04:13:42;6.63;;;5.78;;
36423;SDS011;22458;45.328;9.514;2022-09-03T04:16:10;9.18;;;5.72;;
36423;SDS011;22458;45.328;9.514;2022-09-03T04:18:36;5.70;;;5.10;;
36423;SDS011;22458;45.328;9.514;2022-09-03T04:21:06;6.00;;;5.30;;
36423;SDS011;22458;45.328;9.514;2022-09-03T04:23:35;5.60;;;5.10;;
36423;SDS011;22458;45.328;9.514;2022-09-03T04:26:03;5.50;;;4.85;;
36423;SDS011;22458;45.328;9.514;2022-09-03T04:28:29;5.53;;;4.97;;
36423;SDS011;22458;45.328;9.514;2022-09-03T04:30:59;5.30;;;4.70;;
36423;SDS011;22458;45.328;9.514;2022-09-03T04:33:26;5.57;;;5.05;;
36423;SDS011;22458;45.328;9.514;2022-09-03T04:35:52;5.70;;;5.20;;
36423;SDS011;22458;45.328;9.514;2022-09-03T04:38:25;5.60;;;5.05;;
36423;SDS011;22458;45.328;9.514;2022-09-03T04:40:53;5.88;;;4.80;;
36423;SDS011;22458;45.328;9.514;2022-09-03T04:43:20;6.07;;;5.47;;
36423;SDS011;22458;45.328;9.514;2022-09-03T04:45:45;5.50;;;4.97;;
36423;SDS011;22458;45.328;9.514;2022-09-03T04:48:11;7.78;;;5.20;;
36423;SDS011;22458;45.328;9.514;2022-09-03T04:50:37;7.95;;;5.05;;
36423;SDS011;22458;45.328;9.514;2022-09-03T04:53:03;6.10;;;5.25;;
36423;SDS011;22458;45.328;9.514;2022-09-03T04:55:34;5.72;;;4.93;;
36423;SDS011;22458;45.328;9.514;2022-09-03T04:58:00;5.75;;;5.25;;
36423;SDS011;22458;45.328;9.514;2022-09-03T05:00:26;5.93;;;5.38;;
36423;SDS011;22458;45.328;9.514;2022-09-03T05:02:52;7.30;;;6.45;;
36423;SDS011;22458;45.328;9.514;2022-09-03T05:05:18;6.80;;;6.10;;
36423;SDS011;22458;45.328;9.514;2022-09-03T05:07:44;6.18;;;5.63;;
36423;SDS011;22458;45.328;9.514;2022-09-03T05:10:10;7.72;;;6.50;;
36423;SDS011;22458;45.328;9.514;2022-09-03T05:12:40;7.30;;;6.38;;
36423;SDS011;22458;45.328;9.514;2022-09-03T05:15:06;7.30;;;5.95;;
36423;SDS011;22458;45.328;9.514;2022-09-03T05:17:32;7.05;;;6.35;;
36423;SDS011;22458;45.328;9.514;2022-09-03T05:19:58;6.90;;;6.20;;
36423;SDS011;22458;45.328;9.514;2022-09-03T05:22:24;7.30;;;5.88;;
36423;SDS011;22458;45.328;9.514;2022-09-03T05:24:49;7.20;;;6.30;;
36423;SDS011;22458;45.328;9.514;2022-09-03T05:27:15;8.38;;;6.35;;
36423;SDS011;22458;45.328;9.514;2022-09-03T05:29:41;6.57;;;5.97;;
36423;SDS011;22458;45.328;9.514;2022-09-03T05:32:08;7.30;;;6.07;;
36423;SDS011;22458;45.328;9.514;2022-09-03T05:34:34;7.30;;;6.07;;
36423;SDS011;22458;45.328;9.514;2022-09-03T05:37:00;8.07;;;5.55;;
36423;SDS011;22458;45.328;9.514;2022-09-03T05:39:25;7.97;;;5.82;;
36423;SDS011;22458;45.328;9.514;2022-09-03T05:41:51;8.32;;;5.93;;
36423;SDS011;22458;45.328;9.514;2022-09-03T05:44:17;6.90;;;6.20;;
36423;SDS011;22458;45.328;9.514;2022-09-03T05:46:45;6.53;;;5.93;;
36423;SDS011;22458;45.328;9.514;2022-09-03T05:49:11;7.03;;;6.32;;
36423;SDS011;22458;45.328;9.514;2022-09-03T05:51:37;7.00;;;6.30;;
36423;SDS011;22458;45.328;9.514;2022-09-03T05:54:07;8.48;;;7.00;;
36423;SDS011;22458;45.328;9.514;2022-09-03T05:56:34;7.80;;;6.45;;
36423;SDS011;22458;45.328;9.514;2022-09-03T05:59:02;6.90;;;6.20;;
36423;SDS011;22458;45.328;9.514;2022-09-03T06:01:33;7.93;;;7.13;;
36423;SDS011;22458;45.328;9.514;2022-09-03T06:04:01;6.93;;;6.10;;
36423;SDS011;22458;45.328;9.514;2022-09-03T06:06:29;8.00;;;6.40;;
36423;SDS011;22458;45.328;9.514;2022-09-03T06:11:25;7.40;;;6.68;;
36423;SDS011;22458;45.328;9.514;2022-09-03T06:13:57;7.25;;;6.55;;
36423;SDS011;22458;45.328;9.514;2022-09-03T06:16:29;7.03;;;6.35;;
36423;SDS011;22458;45.328;9.514;2022-09-03T06:18:55;8.85;;;7.05;;
36423;SDS011;22458;45.328;9.514;2022-09-03T06:21:21;8.65;;;7.05;;
36423;SDS011;22458;45.328;9.514;2022-09-03T06:23:51;8.02;;;7.18;;
36423;SDS011;22458;45.328;9.514;2022-09-03T06:26:20;8.43;;;7.00;;
36423;SDS011;22458;45.328;9.514;2022-09-03T06:28:47;7.60;;;6.75;;
36423;SDS011;22458;45.328;9.514;2022-09-03T06:31:14;7.75;;;6.95;;
36423;SDS011;22458;45.328;9.514;2022-09-03T06:33:41;7.23;;;6.53;;
36423;SDS011;22458;45.328;9.514;2022-09-03T06:36:09;9.20;;;6.45;;
36423;SDS011;22458;45.328;9.514;2022-09-03T06:38:39;8.00;;;7.05;;
36423;SDS011;22458;45.328;9.514;2022-09-03T06:41:07;7.22;;;6.57;;
36423;SDS011;22458;45.328;9.514;2022-09-03T06:43:38;8.07;;;6.87;;
36423;SDS011;22458;45.328;9.514;2022-09-03T06:46:06;6.93;;;6.32;;
36423;SDS011;22458;45.328;9.514;2022-09-03T06:48:39;7.35;;;6.47;;
36423;SDS011;22458;45.328;9.514;2022-09-03T06:51:07;8.55;;;7.05;;
36423;SDS011;22458;45.328;9.514;2022-09-03T06:53:38;8.10;;;6.65;;
36423;SDS011;22458;45.328;9.514;2022-09-03T06:56:10;7.43;;;6.35;;
36423;SDS011;22458;45.328;9.514;2022-09-03T06:58:41;6.93;;;6.32;;
36423;SDS011;22458;45.328;9.514;2022-09-03T07:01:13;7.72;;;6.93;;
36423;SDS011;22458;45.328;9.514;2022-09-03T07:06:14;7.18;;;5.95;;
36423;SDS011;22458;45.328;9.514;2022-09-03T07:08:41;6.47;;;5.65;;
36423;SDS011;22458;45.328;9.514;2022-09-03T07:11:09;7.90;;;6.20;;
36423;SDS011;22458;45.328;9.514;2022-09-03T07:13:37;6.28;;;5.68;;
36423;SDS011;22458;45.328;9.514;2022-09-03T07:16:11;6.80;;;6.20;;
36423;SDS011;22458;45.328;9.514;2022-09-03T07:18:44;6.97;;;6.22;;
36423;SDS011;22458;45.328;9.514;2022-09-03T07:21:15;8.82;;;6.40;;
36423;SDS011;22458;45.328;9.514;2022-09-03T07:23:43;7.75;;;6.55;;
36423;SDS011;22458;45.328;9.514;2022-09-03T07:26:13;7.43;;;6.72;;
36423;SDS011;22458;45.328;9.514;2022-09-03T07:28:41;8.10;;;6.22;;
36423;SDS011;22458;45.328;9.514;2022-09-03T07:31:28;9.20;;;6.13;;
36423;SDS011;22458;45.328;9.514;2022-09-03T07:33:56;6.43;;;5.82;;
36423;SDS011;22458;45.328;9.514;2022-09-03T07:36:24;7.60;;;6.90;;
36423;SDS011;22458;45.328;9.514;2022-09-03T07:38:55;7.10;;;6.40;;
36423;SDS011;22458;45.328;9.514;2022-09-03T07:41:22;8.27;;;6.78;;
36423;SDS011;22458;45.328;9.514;2022-09-03T07:43:51;8.00;;;6.72;;
36423;SDS011;22458;45.328;9.514;2022-09-03T07:46:18;7.57;;;6.78;;
36423;SDS011;22458;45.328;9.514;2022-09-03T07:48:53;7.47;;;6.70;;
36423;SDS011;22458;45.328;9.514;2022-09-03T07:51:21;7.15;;;6.35;;
36423;SDS011;22458;45.328;9.514;2022-09-03T07:53:52;8.35;;;6.78;;
36423;SDS011;22458;45.328;9.514;2022-09-03T07:56:20;7.40;;;6.40;;
36423;SDS011;22458;45.328;9.514;2022-09-03T07:58:46;9.88;;;6.85;;
36423;SDS011;22458;45.328;9.514;2022-09-03T08:01:13;6.82;;;6.13;;
36423;SDS011;22458;45.328;9.514;2022-09-03T08:03:45;7.30;;;6.60;;
36423;SDS011;22458;45.328;9.514;2022-09-03T08:06:14;6.72;;;6.03;;
36423;SDS011;22458;45.328;9.514;2022-09-03T08:08:40;6.60;;;5.68;;
36423;SDS011;22458;45.328;9.514;2022-09-03T08:11:19;6.63;;;5.80;;
36423;SDS011;22458;45.328;9.514;2022-09-03T08:16:16;6.50;;;5.85;;
36423;SDS011;22458;45.328;9.514;2022-09-03T08:18:42;9.13;;;6.30;;
36423;SDS011;22458;45.328;9.514;2022-09-03T08:21:10;6.95;;;5.90;;
36423;SDS011;22458;45.328;9.514;2022-09-03T08:23:48;6.47;;;5.80;;
36423;SDS011;22458;45.328;9.514;2022-09-03T08:26:16;6.43;;;5.82;;
36423;SDS011;22458;45.328;9.514;2022-09-03T08:28:44;10.75;;;5.68;;
36423;SDS011;22458;45.328;9.514;2022-09-03T08:31:11;6.05;;;4.90;;
36423;SDS011;22458;45.328;9.514;2022-09-03T08:33:42;6.00;;;5.40;;
36423;SDS011;22458;45.328;9.514;2022-09-03T08:36:11;7.40;;;5.20;;
36423;SDS011;22458;45.328;9.514;2022-09-03T08:38:39;5.13;;;4.22;;
36423;SDS011;22458;45.328;9.514;2022-09-03T08:41:14;6.05;;;4.65;;
36423;SDS011;22458;45.328;9.514;2022-09-03T08:43:53;4.68;;;4.25;;
36423;SDS011;22458;45.328;9.514;2022-09-03T08:46:35;4.78;;;4.18;;
36423;SDS011;22458;45.328;9.514;2022-09-03T08:49:10;5.30;;;3.28;;
36423;SDS011;22458;45.328;9.514;2022-09-03T08:51:38;4.03;;;3.63;;
36423;SDS011;22458;45.328;9.514;2022-09-03T08:54:07;4.43;;;4.03;;
36423;SDS011;22458;45.328;9.514;2022-09-03T08:56:36;4.93;;;4.50;;
36423;SDS011;22458;45.328;9.514;2022-09-03T08:59:05;3.83;;;3.42;;
36423;SDS011;22458;45.328;9.514;2022-09-03T09:04:24;2.75;;;2.35;;
36423;SDS011;22458;45.328;9.514;2022-09-03T09:07:23;3.97;;;2.75;;
36423;SDS011;22458;45.328;9.514;2022-09-03T09:10:09;2.35;;;1.85;;
36423;SDS011;22458;45.328;9.514;2022-09-03T09:12:46;2.15;;;1.80;;
36423;SDS011;22458;45.328;9.514;2022-09-03T09:15:26;2.95;;;2.40;;
36423;SDS011;22458;45.328;9.514;2022-09-03T09:24:01;3.85;;;2.20;;
36423;SDS011;22458;45.328;9.514;2022-09-03T09:26:31;4.57;;;2.40;;
36423;SDS011;22458;45.328;9.514;2022-09-03T09:29:04;3.45;;;3.05;;
36423;SDS011;22458;45.328;9.514;2022-09-03T09:31:34;5.25;;;3.13;;
36423;SDS011;22458;45.328;9.514;2022-09-03T09:34:05;4.72;;;3.10;;
36423;SDS011;22458;45.328;9.514;2022-09-03T09:36:36;3.35;;;3.05;;
36423;SDS011;22458;45.328;9.514;2022-09-03T09:39:18;5.28;;;3.50;;
36423;SDS011;22458;45.328;9.514;2022-09-03T09:42:00;5.38;;;3.70;;
36423;SDS011;22458;45.328;9.514;2022-09-03T09:44:32;3.72;;;3.10;;
36423;SDS011;22458;45.328;9.514;2022-09-03T09:49:59;4.30;;;3.33;;
36423;SDS011;22458;45.328;9.514;2022-09-03T09:52:27;4.73;;;3.00;;
36423;SDS011;22458;45.328;9.514;2022-09-03T09:57:35;4.45;;;3.78;;
36423;SDS011;22458;45.328;9.514;2022-09-03T10:00:09;4.53;;;3.80;;
36423;SDS011;22458;45.328;9.514;2022-09-03T10:02:37;10.73;;;4.93;;
36423;SDS011;22458;45.328;9.514;2022-09-03T10:05:20;4.35;;;3.95;;
36423;SDS011;22458;45.328;9.514;2022-09-03T10:07:58;5.00;;;4.43;;
36423;SDS011;22458;45.328;9.514;2022-09-03T10:10:28;4.22;;;3.83;;
36423;SDS011;22458;45.328;9.514;2022-09-03T10:12:58;5.25;;;4.50;;
36423;SDS011;22458;45.328;9.514;2022-09-03T10:18:31;5.45;;;3.85;;
36423;SDS011;22458;45.328;9.514;2022-09-03T10:26:12;5.18;;;4.13;;
36423;SDS011;22458;45.328;9.514;2022-09-03T10:28:40;5.78;;;4.05;;
36423;SDS011;22458;45.328;9.514;2022-09-03T10:36:25;5.15;;;4.57;;
36423;SDS011;22458;45.328;9.514;2022-09-03T10:39:03;4.63;;;4.20;;
36423;SDS011;22458;45.328;9.514;2022-09-03T10:49:45;5.13;;;4.63;;
36423;SDS011;22458;45.328;9.514;2022-09-03T11:00:11;4.88;;;3.72;;
36423;SDS011;22458;45.328;9.514;2022-09-03T11:02:46;5.55;;;4.35;;
36423;SDS011;22458;45.328;9.514;2022-09-03T11:05:41;3.83;;;3.42;;
36423;SDS011;22458;45.328;9.514;2022-09-03T11:08:22;4.97;;;3.90;;
36423;SDS011;22458;45.328;9.514;2022-09-03T11:10:58;4.38;;;3.42;;
36423;SDS011;22458;45.328;9.514;2022-09-03T11:13:37;5.13;;;4.05;;
36423;SDS011;22458;45.328;9.514;2022-09-03T11:16:16;4.57;;;3.20;;
36423;SDS011;22458;45.328;9.514;2022-09-03T11:18:51;4.80;;;4.00;;
36423;SDS011;22458;45.328;9.514;2022-09-03T11:21:25;4.78;;;4.15;;
36423;SDS011;22458;45.328;9.514;2022-09-03T11:24:01;6.32;;;3.33;;
36423;SDS011;22458;45.328;9.514;2022-09-03T11:26:42;6.03;;;3.70;;
36423;SDS011;22458;45.328;9.514;2022-09-03T11:29:17;3.70;;;3.40;;
36423;SDS011;22458;45.328;9.514;2022-09-03T11:31:54;4.00;;;3.50;;
36423;SDS011;22458;45.328;9.514;2022-09-03T11:34:30;5.45;;;3.55;;
36423;SDS011;22458;45.328;9.514;2022-09-03T11:39:42;5.18;;;3.90;;
36423;SDS011;22458;45.328;9.514;2022-09-03T11:42:10;5.60;;;3.33;;
36423;SDS011;22458;45.328;9.514;2022-09-03T11:44:45;3.67;;;3.30;;
36423;SDS011;22458;45.328;9.514;2022-09-03T11:47:20;5.88;;;3.10;;
36423;SDS011;22458;45.328;9.514;2022-09-03T11:49:47;3.17;;;2.75;;
36423;SDS011;22458;45.328;9.514;2022-09-03T11:52:27;4.13;;;3.20;;
36423;SDS011;22458;45.328;9.514;2022-09-03T11:55:04;4.30;;;3.75;;
36423;SDS011;22458;45.328;9.514;2022-09-03T11:57:31;3.78;;;3.05;;
36423;SDS011;22458;45.328;9.514;2022-09-03T12:00:10;9.40;;;3.20;;
36423;SDS011;22458;45.328;9.514;2022-09-03T12:02:45;4.38;;;2.53;;
36423;SDS011;22458;45.328;9.514;2022-09-03T12:05:22;3.95;;;2.80;;
36423;SDS011;22458;45.328;9.514;2022-09-03T12:11:11;2.75;;;2.47;;
36423;SDS011;22458;45.328;9.514;2022-09-03T12:14:21;3.03;;;2.38;;
36423;SDS011;22458;45.328;9.514;2022-09-03T12:19:55;3.25;;;2.30;;
36423;SDS011;22458;45.328;9.514;2022-09-03T12:22:23;4.28;;;2.83;;
36423;SDS011;22458;45.328;9.514;2022-09-03T12:24:53;4.13;;;2.58;;
36423;SDS011;22458;45.328;9.514;2022-09-03T12:27:20;3.63;;;2.40;;
36423;SDS011;22458;45.328;9.514;2022-09-03T12:29:59;3.85;;;2.30;;
36423;SDS011;22458;45.328;9.514;2022-09-03T12:32:27;2.78;;;2.58;;
36423;SDS011;22458;45.328;9.514;2022-09-03T12:35:17;2.85;;;2.65;;
36423;SDS011;22458;45.328;9.514;2022-09-03T12:37:45;2.45;;;2.25;;
36423;SDS011;22458;45.328;9.514;2022-09-03T12:40:21;3.22;;;1.83;;
36423;SDS011;22458;45.328;9.514;2022-09-03T12:45:20;3.03;;;2.30;;
36423;SDS011;22458;45.328;9.514;2022-09-03T12:47:47;4.18;;;2.40;;
36423;SDS011;22458;45.328;9.514;2022-09-03T12:50:15;3.05;;;2.42;;
36423;SDS011;22458;45.328;9.514;2022-09-03T12:52:44;2.92;;;2.50;;
36423;SDS011;22458;45.328;9.514;2022-09-03T12:55:23;4.35;;;2.60;;
36423;SDS011;22458;45.328;9.514;2022-09-03T13:06:24;3.45;;;1.60;;
36423;SDS011;22458;45.328;9.514;2022-09-03T13:09:02;4.13;;;1.77;;
36423;SDS011;22458;45.328;9.514;2022-09-03T13:11:34;2.13;;;1.85;;
36423;SDS011;22458;45.328;9.514;2022-09-03T13:14:13;2.80;;;1.63;;
36423;SDS011;22458;45.328;9.514;2022-09-03T13:30:19;2.22;;;1.60;;
36423;SDS011;22458;45.328;9.514;2022-09-03T13:35:46;2.57;;;1.60;;
36423;SDS011;22458;45.328;9.514;2022-09-03T13:43:53;2.15;;;1.85;;
36423;SDS011;22458;45.328;9.514;2022-09-03T13:49:08;2.63;;;2.05;;
36423;SDS011;22458;45.328;9.514;2022-09-03T13:52:10;1.80;;;1.60;;
36423;SDS011;22458;45.328;9.514;2022-09-03T13:54:49;3.35;;;2.03;;
36423;SDS011;22458;45.328;9.514;2022-09-03T14:00:02;2.75;;;2.00;;
36423;SDS011;22458;45.328;9.514;2022-09-03T14:11:01;2.63;;;2.42;;
36423;SDS011;22458;45.328;9.514;2022-09-03T14:13:55;3.00;;;2.55;;
36423;SDS011;22458;45.328;9.514;2022-09-03T14:16:52;4.03;;;3.03;;
36423;SDS011;22458;45.328;9.514;2022-09-03T14:19:46;4.53;;;3.08;;
36423;SDS011;22458;45.328;9.514;2022-09-03T14:25:02;4.57;;;3.70;;
36423;SDS011;22458;45.328;9.514;2022-09-03T14:27:35;3.38;;;3.08;;
36423;SDS011;22458;45.328;9.514;2022-09-03T14:30:03;4.53;;;2.95;;
36423;SDS011;22458;45.328;9.514;2022-09-03T14:35:30;4.03;;;3.05;;
36423;SDS011;22458;45.328;9.514;2022-09-03T14:41:02;4.32;;;3.22;;
36423;SDS011;22458;45.328;9.514;2022-09-03T14:47:21;3.80;;;3.42;;
36423;SDS011;22458;45.328;9.514;2022-09-03T14:55:38;4.63;;;3.42;;
36423;SDS011;22458;45.328;9.514;2022-09-03T15:01:19;8.85;;;6.32;;
36423;SDS011;22458;45.328;9.514;2022-09-03T15:03:55;8.60;;;4.50;;
36423;SDS011;22458;45.328;9.514;2022-09-03T15:09:32;6.72;;;3.55;;
36423;SDS011;22458;45.328;9.514;2022-09-03T15:12:28;3.20;;;2.90;;
36423;SDS011;22458;45.328;9.514;2022-09-03T15:14:59;3.72;;;3.40;;
36423;SDS011;22458;45.328;9.514;2022-09-03T15:17:45;5.43;;;3.50;;
36423;SDS011;22458;45.328;9.514;2022-09-03T15:20:23;5.22;;;3.72;;
36423;SDS011;22458;45.328;9.514;2022-09-03T15:23:13;3.85;;;2.97;;
36423;SDS011;22458;45.328;9.514;2022-09-03T15:28:45;4.07;;;3.63;;
36423;SDS011;22458;45.328;9.514;2022-09-03T15:31:27;5.57;;;3.45;;
36423;SDS011;22458;45.328;9.514;2022-09-03T15:36:50;3.70;;;2.95;;
36423;SDS011;22458;45.328;9.514;2022-09-03T15:39:21;3.47;;;3.15;;
36423;SDS011;22458;45.328;9.514;2022-09-03T15:41:55;5.93;;;3.00;;
36423;SDS011;22458;45.328;9.514;2022-09-03T15:47:27;3.67;;;2.97;;
36423;SDS011;22458;45.328;9.514;2022-09-03T15:50:02;3.38;;;3.05;;
36423;SDS011;22458;45.328;9.514;2022-09-03T15:58:00;4.95;;;2.67;;
36423;SDS011;22458;45.328;9.514;2022-09-03T16:03:10;4.25;;;2.55;;
36423;SDS011;22458;45.328;9.514;2022-09-03T16:05:44;4.00;;;3.55;;
36423;SDS011;22458;45.328;9.514;2022-09-03T16:08:31;4.30;;;3.60;;
36423;SDS011;22458;45.328;9.514;2022-09-03T16:14:05;3.78;;;3.20;;
36423;SDS011;22458;45.328;9.514;2022-09-03T16:24:58;4.85;;;2.95;;
36423;SDS011;22458;45.328;9.514;2022-09-03T16:38:41;4.15;;;2.55;;
36423;SDS011;22458;45.328;9.514;2022-09-03T16:41:12;3.58;;;2.88;;
36423;SDS011;22458;45.328;9.514;2022-09-03T16:46:53;3.20;;;2.72;;
36423;SDS011;22458;45.328;9.514;2022-09-03T16:55:18;3.35;;;2.70;;
36423;SDS011;22458;45.328;9.514;2022-09-03T17:00:51;2.90;;;2.30;;
36423;SDS011;22458;45.328;9.514;2022-09-03T17:03:42;3.20;;;2.47;;
36423;SDS011;22458;45.328;9.514;2022-09-03T17:06:54;2.55;;;2.20;;
36423;SDS011;22458;45.328;9.514;2022-09-03T17:11:41;7.07;;;2.42;;
36423;SDS011;22458;45.328;9.514;2022-09-03T17:16:57;9.82;;;3.85;;
36423;SDS011;22458;45.328;9.514;2022-09-03T17:28:37;3.70;;;2.42;;
36423;SDS011;22458;45.328;9.514;2022-09-03T17:31:07;3.63;;;2.35;;
36423;SDS011;22458;45.328;9.514;2022-09-03T17:33:42;3.35;;;2.35;;
36423;SDS011;22458;45.328;9.514;2022-09-03T17:37:03;3.00;;;2.20;;
36423;SDS011;22458;45.328;9.514;2022-09-03T17:42:43;2.28;;;2.05;;
36423;SDS011;22458;45.328;9.514;2022-09-03T17:50:26;2.22;;;2.03;;
36423;SDS011;22458;45.328;9.514;2022-09-03T17:53:02;3.67;;;2.72;;
36423;SDS011;22458;45.328;9.514;2022-09-03T17:55:37;3.13;;;2.20;;
36423;SDS011;22458;45.328;9.514;2022-09-03T17:59:00;3.13;;;2.38;;
36423;SDS011;22458;45.328;9.514;2022-09-03T18:09:00;2.85;;;2.47;;
36423;SDS011;22458;45.328;9.514;2022-09-03T18:17:19;3.33;;;2.38;;
36423;SDS011;22458;45.328;9.514;2022-09-03T18:25:34;3.47;;;2.28;;
36423;SDS011;22458;45.328;9.514;2022-09-03T18:28:26;3.30;;;2.95;;
36423;SDS011;22458;45.328;9.514;2022-09-03T18:31:21;3.42;;;2.63;;
36423;SDS011;22458;45.328;9.514;2022-09-03T18:34:06;3.65;;;2.80;;
36423;SDS011;22458;45.328;9.514;2022-09-03T18:36:51;3.45;;;2.70;;
36423;SDS011;22458;45.328;9.514;2022-09-03T18:39:39;2.95;;;2.35;;
36423;SDS011;22458;45.328;9.514;2022-09-03T18:48:24;2.90;;;2.63;;
36423;SDS011;22458;45.328;9.514;2022-09-03T18:56:54;2.58;;;2.20;;
36423;SDS011;22458;45.328;9.514;2022-09-03T19:05:34;3.95;;;3.03;;
36423;SDS011;22458;45.328;9.514;2022-09-03T19:08:38;2.92;;;2.38;;
36423;SDS011;22458;45.328;9.514;2022-09-03T19:11:36;3.45;;;2.58;;
36423;SDS011;22458;45.328;9.514;2022-09-03T19:20:35;3.50;;;2.28;;
36423;SDS011;22458;45.328;9.514;2022-09-03T19:23:23;5.75;;;2.75;;
36423;SDS011;22458;45.328;9.514;2022-09-03T19:26:18;2.47;;;2.28;;
36423;SDS011;22458;45.328;9.514;2022-09-03T19:29:12;3.45;;;2.17;;
36423;SDS011;22458;45.328;9.514;2022-09-03T19:32:12;3.05;;;2.47;;
36423;SDS011;22458;45.328;9.514;2022-09-03T19:38:13;4.25;;;2.60;;
36423;SDS011;22458;45.328;9.514;2022-09-03T19:41:26;4.55;;;2.97;;
36423;SDS011;22458;45.328;9.514;2022-09-03T19:47:43;4.32;;;2.85;;
36423;SDS011;22458;45.328;9.514;2022-09-03T19:50:34;3.85;;;2.88;;
36423;SDS011;22458;45.328;9.514;2022-09-03T19:53:24;3.60;;;2.97;;
36423;SDS011;22458;45.328;9.514;2022-09-03T19:56:12;2.63;;;2.42;;
36423;SDS011;22458;45.328;9.514;2022-09-03T19:59:04;3.63;;;2.58;;
36423;SDS011;22458;45.328;9.514;2022-09-03T20:01:54;4.13;;;2.60;;
36423;SDS011;22458;45.328;9.514;2022-09-03T20:04:39;3.83;;;2.97;;
36423;SDS011;22458;45.328;9.514;2022-09-03T20:07:30;2.78;;;2.47;;
36423;SDS011;22458;45.328;9.514;2022-09-03T20:10:16;3.47;;;2.70;;
36423;SDS011;22458;45.328;9.514;2022-09-03T20:15:51;3.17;;;2.72;;
36423;SDS011;22458;45.328;9.514;2022-09-03T20:34:59;2.58;;;2.38;;
36423;SDS011;22458;45.328;9.514;2022-09-03T20:37:57;3.35;;;2.88;;
36423;SDS011;22458;45.328;9.514;2022-09-03T20:48:38;3.30;;;2.65;;
36423;SDS011;22458;45.328;9.514;2022-09-03T20:51:15;2.53;;;2.08;;
36423;SDS011;22458;45.328;9.514;2022-09-03T20:53:51;2.60;;;2.40;;
36423;SDS011;22458;45.328;9.514;2022-09-03T21:07:19;3.05;;;2.45;;
36423;SDS011;22458;45.328;9.514;2022-09-03T21:10:14;3.08;;;2.78;;
36423;SDS011;22458;45.328;9.514;2022-09-03T21:18:09;3.50;;;2.58;;
36423;SDS011;22458;45.328;9.514;2022-09-03T21:20:46;3.00;;;2.70;;
36423;SDS011;22458;45.328;9.514;2022-09-03T21:23:31;4.10;;;2.17;;